Time;durP1;ratioP1;P1;durP2;ratioP2;P2;SDS_P1;SDS_P2;PMS_P1;PMS_P2;Temp;Humidity;BMP_temperature;BMP_pressure;BME280_temperature;BME280_humidity;BME280_pressure;Samples;Min_cycle;Max_cycle;Signal;HPM_P1;HPM_P2
2022/07/09 00:02:34;;;;;;;3.13;2.83;;;19.60;41.70;;;;;;20721;6754;117631;-88
2022/07/09 00:05:12;;;;;;;3.70;2.70;;;19.50;41.70;;;;;;20696;6743;278514;-87
2022/07/09 00:07:46;;;;;;;2.72;2.53;;;19.40;41.60;;;;;;20719;6743;279104;-87
2022/07/09 00:10:21;;;;;;;2.97;2.63;;;19.60;41.40;;;;;;20660;6743;308546;-88
2022/07/09 00:12:57;;;;;;;3.57;2.60;;;19.80;41.30;;;;;;20692;6743;119822;-87
2022/07/09 00:15:33;;;;;;;2.75;2.50;;;19.50;41.50;;;;;;20666;6749;300364;-87
2022/07/09 00:18:08;;;;;;;2.67;2.47;;;19.50;41.90;;;;;;20843;6749;118192;-86
2022/07/09 00:20:45;;;;;;;3.80;2.60;;;19.30;41.90;;;;;;20574;6749;308295;-89
2022/07/09 00:23:21;;;;;;;4.17;2.50;;;19.40;42.10;;;;;;20826;6768;118135;-87
2022/07/09 00:25:56;;;;;;;2.97;2.77;;;19.20;42.00;;;;;;20895;6747;119470;-87
2022/07/09 00:28:32;;;;;;;3.13;2.50;;;18.60;42.30;;;;;;20868;6747;117064;-88
2022/07/09 00:31:09;;;;;;;3.43;2.90;;;18.50;42.70;;;;;;20536;6772;280136;-86
2022/07/09 00:33:44;;;;;;;4.97;2.97;;;18.80;43.10;;;;;;20825;6760;119619;-87
2022/07/09 00:36:20;;;;;;;3.80;2.93;;;19.00;42.90;;;;;;20565;6772;277334;-87
2022/07/09 00:38:56;;;;;;;2.93;2.67;;;18.90;42.70;;;;;;20849;6757;118174;-87
2022/07/09 00:41:31;;;;;;;3.20;2.90;;;18.90;42.70;;;;;;20824;6742;117044;-87
2022/07/09 00:44:07;;;;;;;3.00;2.70;;;18.60;43.00;;;;;;20839;6753;117399;-87
2022/07/09 00:46:42;;;;;;;4.60;3.10;;;18.40;43.20;;;;;;20877;6748;117008;-87
2022/07/09 00:49:18;;;;;;;4.93;2.87;;;18.20;43.40;;;;;;20889;6748;118934;-87
2022/07/09 00:51:53;;;;;;;4.00;3.60;;;18.10;43.90;;;;;;20584;6748;311333;-87
2022/07/09 00:54:30;;;;;;;3.80;3.40;;;18.70;43.80;;;;;;20615;6760;277979;-87
2022/07/09 00:57:06;;;;;;;4.27;3.30;;;18.70;43.80;;;;;;20640;6756;292532;-87
2022/07/09 00:59:42;;;;;;;4.23;3.23;;;18.90;43.20;;;;;;20830;6760;117652;-87
2022/07/09 01:02:18;;;;;;;5.07;3.10;;;18.30;43.70;;;;;;20624;6773;119461;-87
2022/07/09 01:04:54;;;;;;;3.93;3.53;;;18.20;43.60;;;;;;20589;6773;278019;-87
2022/07/09 01:07:29;;;;;;;3.40;3.10;;;18.40;43.90;;;;;;20780;6777;117568;-87
2022/07/09 01:10:05;;;;;;;3.07;2.87;;;18.20;43.80;;;;;;20818;6760;119209;-87
2022/07/09 01:12:41;;;;;;;3.63;2.83;;;17.90;44.20;;;;;;20628;6778;118667;-87
2022/07/09 01:15:16;;;;;;;7.13;3.60;;;17.70;44.70;;;;;;20869;6751;119531;-87
2022/07/09 01:17:52;;;;;;;3.47;3.07;;;17.50;45.00;;;;;;20819;6766;116980;-87
2022/07/09 01:20:29;;;;;;;3.37;2.77;;;17.40;45.30;;;;;;20787;6769;119143;-87
2022/07/09 01:23:03;;;;;;;6.65;3.50;;;17.30;45.60;;;;;;20364;6842;281467;-87
2022/07/09 01:25:38;;;;;;;4.57;3.60;;;17.60;45.80;;;;;;20759;6784;119783;-87
2022/07/09 01:28:15;;;;;;;3.93;3.10;;;17.60;45.50;;;;;;20782;6775;141753;-87
2022/07/09 01:30:51;;;;;;;3.53;3.23;;;17.40;45.70;;;;;;20592;6778;308058;-87
2022/07/09 01:33:26;;;;;;;3.90;3.30;;;17.60;46.20;;;;;;20685;6758;305815;-87
2022/07/09 01:36:02;;;;;;;3.13;2.93;;;18.00;45.50;;;;;;20884;6758;117732;-87
2022/07/09 01:38:38;;;;;;;4.63;3.30;;;17.80;45.30;;;;;;20843;6758;118282;-87
2022/07/09 01:41:13;;;;;;;3.90;3.23;;;17.50;45.70;;;;;;20781;6763;117598;-87
2022/07/09 01:43:49;;;;;;;3.57;3.37;;;17.20;46.00;;;;;;20776;6778;117995;-87
2022/07/09 01:46:24;;;;;;;5.12;3.60;;;17.10;46.40;;;;;;20649;6748;306197;-87
2022/07/09 01:49:00;;;;;;;3.57;3.27;;;17.30;46.50;;;;;;20883;6763;116943;-87
2022/07/09 01:51:35;;;;;;;5.63;3.10;;;17.30;46.20;;;;;;20807;6768;116257;-87
2022/07/09 01:54:12;;;;;;;3.53;3.10;;;17.00;47.40;;;;;;20939;6753;118444;-87
2022/07/09 01:56:47;;;;;;;3.67;3.37;;;16.90;46.60;;;;;;20687;6753;277922;-87
2022/07/09 01:59:23;;;;;;;6.53;3.60;;;17.20;46.40;;;;;;20695;6738;320316;-86
2022/07/09 02:01:58;;;;;;;3.50;3.30;;;17.60;45.90;;;;;;20580;6738;278122;-87
2022/07/09 02:04:34;;;;;;;4.13;3.00;;;17.90;45.40;;;;;;20918;6734;116965;-87
2022/07/09 02:07:10;;;;;;;3.23;2.93;;;17.40;45.90;;;;;;20890;6743;115963;-87
2022/07/09 02:09:48;;;;;;;4.73;2.83;;;17.40;45.80;;;;;;20808;6768;117473;-87
2022/07/09 02:12:22;;;;;;;3.20;2.90;;;17.10;46.20;;;;;;20669;6779;118144;-86
2022/07/09 02:14:58;;;;;;;3.47;3.17;;;17.20;46.50;;;;;;20664;6749;280704;-87
2022/07/09 02:17:34;;;;;;;4.18;3.47;;;17.20;46.50;;;;;;20714;6734;326841;-86
2022/07/09 02:20:11;;;;;;;4.30;3.40;;;17.80;45.90;;;;;;20716;6729;276056;-87
2022/07/09 02:22:47;;;;;;;3.95;3.47;;;17.80;45.20;;;;;;20565;6729;278578;-87
2022/07/09 02:25:23;;;;;;;4.50;3.67;;;18.00;45.10;;;;;;20686;6742;307943;-86
2022/07/09 02:27:59;;;;;;;3.83;3.53;;;17.80;45.00;;;;;;20831;6742;119175;-87
2022/07/09 02:30:36;;;;;;;3.20;3.00;;;17.70;44.90;;;;;;20967;6745;67570;-87
2022/07/09 02:33:10;;;;;;;4.00;3.10;;;17.40;45.60;;;;;;20946;6745;116428;-87
2022/07/09 02:35:46;;;;;;;6.37;3.60;;;17.10;46.10;;;;;;20589;6771;307326;-88
2022/07/09 02:38:21;;;;;;;3.80;3.07;;;17.20;46.50;;;;;;20951;6743;118219;-87
2022/07/09 02:40:57;;;;;;;3.43;3.17;;;17.10;46.30;;;;;;20893;6758;116015;-87
2022/07/09 02:43:32;;;;;;;6.83;2.90;;;16.80;46.60;;;;;;21002;6729;117276;-87
2022/07/09 02:46:08;;;;;;;3.47;3.17;;;16.60;47.10;;;;;;21003;6733;116056;-87
2022/07/09 02:48:44;;;;;;;3.40;3.10;;;16.50;47.50;;;;;;20842;6757;117889;-89
2022/07/09 02:51:19;;;;;;;2.97;2.77;;;16.40;47.60;;;;;;20851;6759;117414;-89
2022/07/09 02:53:55;;;;;;;3.37;3.10;;;16.30;47.70;;;;;;20857;6776;117370;-88
2022/07/09 02:56:30;;;;;;;3.10;2.90;;;16.20;47.80;;;;;;20832;6766;119257;-88
2022/07/09 02:59:06;;;;;;;4.20;3.37;;;16.20;48.00;;;;;;20813;6769;118903;-88
2022/07/09 03:01:42;;;;;;;3.03;2.80;;;16.00;47.80;;;;;;20785;6739;117904;-89
2022/07/09 03:04:18;;;;;;;3.50;3.20;;;15.90;48.10;;;;;;20900;6746;118542;-88
2022/07/09 03:06:53;;;;;;;3.50;3.20;;;15.90;48.30;;;;;;20858;6752;117492;-88
2022/07/09 03:09:29;;;;;;;3.30;3.00;;;15.90;48.40;;;;;;20867;6752;121272;-89
2022/07/09 03:12:05;;;;;;;4.00;3.70;;;15.80;48.40;;;;;;20474;6752;338810;-87
2022/07/09 03:14:40;;;;;;;3.13;2.93;;;16.20;48.40;;;;;;20868;6757;117162;-87
2022/07/09 03:17:16;;;;;;;3.67;3.37;;;16.30;48.10;;;;;;20602;6772;306364;-88
2022/07/09 03:19:51;;;;;;;3.80;3.40;;;16.60;47.90;;;;;;20624;6766;276334;-86
2022/07/09 03:22:27;;;;;;;3.58;3.28;;;17.00;47.10;;;;;;20507;6750;309518;-86
2022/07/09 03:25:04;;;;;;;3.60;3.30;;;17.30;46.40;;;;;;20854;6754;117179;-87
2022/07/09 03:27:40;;;;;;;3.60;3.20;;;17.10;46.40;;;;;;20631;6760;336420;-86
2022/07/09 03:30:15;;;;;;;3.93;3.43;;;17.20;46.00;;;;;;20728;6775;118293;-86
2022/07/09 03:32:51;;;;;;;5.07;3.30;;;17.00;46.20;;;;;;20352;6794;301661;-87
2022/07/09 03:35:26;;;;;;;5.43;3.17;;;17.10;46.30;;;;;;20777;6788;118247;-87
2022/07/09 03:38:02;;;;;;;3.42;3.20;;;17.00;46.40;;;;;;20599;6763;306520;-87
2022/07/09 03:40:37;;;;;;;3.23;2.70;;;17.10;46.30;;;;;;20853;6754;118138;-86
2022/07/09 03:43:13;;;;;;;4.03;3.20;;;16.90;46.40;;;;;;20720;6798;117792;-87
2022/07/09 03:45:49;;;;;;;3.93;3.53;;;16.60;46.90;;;;;;20777;6779;118443;-86
2022/07/09 03:48:24;;;;;;;3.97;3.58;;;16.30;47.40;;;;;;20535;6783;299909;-87
2022/07/09 03:51:00;;;;;;;3.37;3.10;;;16.50;47.80;;;;;;20745;6777;118383;-87
2022/07/09 03:53:35;;;;;;;3.30;3.00;;;16.40;47.60;;;;;;20895;6746;116923;-86
2022/07/09 03:56:12;;;;;;;3.62;3.33;;;16.20;47.90;;;;;;20741;6731;337852;-87
2022/07/09 03:58:47;;;;;;;3.53;3.23;;;16.40;48.20;;;;;;20873;6749;118165;-86
2022/07/09 04:01:22;;;;;;;3.30;3.00;;;16.40;48.00;;;;;;20805;6745;118330;-87
2022/07/09 04:03:58;;;;;;;4.07;3.47;;;16.20;48.30;;;;;;20619;6764;309445;-86
2022/07/09 04:06:33;;;;;;;3.30;3.10;;;16.40;48.30;;;;;;20819;6763;118253;-87
2022/07/09 04:09:09;;;;;;;4.97;3.40;;;16.40;48.80;;;;;;20934;6729;120272;-87
2022/07/09 04:11:45;;;;;;;3.60;3.40;;;16.40;48.30;;;;;;20608;6729;281140;-87
2022/07/09 04:14:21;;;;;;;3.23;3.03;;;16.40;48.30;;;;;;20952;6723;119505;-87
2022/07/09 04:16:58;;;;;;;4.03;3.62;;;16.60;48.20;;;;;;20753;6720;305475;-87
2022/07/09 04:19:34;;;;;;;6.57;3.30;;;16.50;48.10;;;;;;20898;6748;120739;-87
2022/07/09 04:22:09;;;;;;;3.20;3.00;;;16.50;48.10;;;;;;20769;6753;120902;-87
2022/07/09 04:24:45;;;;;;;4.07;3.50;;;16.30;48.30;;;;;;20694;6753;307636;-87
2022/07/09 04:27:20;;;;;;;4.00;3.40;;;16.40;47.90;;;;;;20900;6753;118935;-87
2022/07/09 04:29:57;;;;;;;4.90;3.03;;;16.40;47.90;;;;;;20901;6753;117055;-87
2022/07/09 04:32:32;;;;;;;4.17;3.10;;;16.00;48.50;;;;;;20823;6738;119845;-87
2022/07/09 04:35:08;;;;;;;5.43;3.13;;;16.00;48.50;;;;;;20902;6739;117131;-87
2022/07/09 04:37:44;;;;;;;3.90;3.50;;;15.90;48.70;;;;;;20869;6738;117130;-87
2022/07/09 04:40:19;;;;;;;4.20;3.80;;;15.80;48.80;;;;;;20563;6771;298021;-87
2022/07/09 04:42:55;;;;;;;3.50;3.30;;;16.10;48.20;;;;;;20652;6766;118599;-87
2022/07/09 04:45:34;;;;;;;3.20;3.00;;;16.20;48.10;;;;;;20757;6771;119290;-87
2022/07/09 04:48:06;;;;;;;4.10;3.70;;;16.10;48.30;;;;;;20574;6783;281247;-87
2022/07/09 04:50:42;;;;;;;4.80;3.80;;;16.30;47.90;;;;;;20681;6738;292491;-87
2022/07/09 04:53:17;;;;;;;3.60;3.30;;;16.80;47.20;;;;;;20783;6753;117671;-87
2022/07/09 04:55:53;;;;;;;3.47;3.23;;;16.80;47.20;;;;;;20692;6738;278349;-87
2022/07/09 04:58:28;;;;;;;3.60;3.40;;;16.90;47.00;;;;;;20600;6762;278409;-87
2022/07/09 05:01:04;;;;;;;3.63;3.30;;;17.30;46.20;;;;;;20613;6748;308512;-87
2022/07/09 05:03:40;;;;;;;3.53;3.10;;;17.50;45.70;;;;;;20670;6748;314976;-87
2022/07/09 05:06:15;;;;;;;6.33;3.30;;;17.80;45.30;;;;;;20916;6733;117778;-88
2022/07/09 05:08:51;;;;;;;2.90;2.70;;;17.60;45.60;;;;;;20879;6748;117157;-87
2022/07/09 05:11:27;;;;;;;3.17;2.97;;;17.30;46.20;;;;;;20797;6732;117148;-87
2022/07/09 05:14:02;;;;;;;7.97;3.10;;;17.10;46.70;;;;;;20836;6753;118475;-89
2022/07/09 05:16:41;;;;;;;3.60;3.30;;;16.90;46.90;;;;;;20887;6745;116996;-86
2022/07/09 05:19:13;;;;;;;4.50;3.30;;;16.90;47.30;;;;;;20640;6751;310815;-87
2022/07/09 05:21:49;;;;;;;3.33;3.13;;;17.20;47.10;;;;;;20727;6768;118350;-86
2022/07/09 05:24:24;;;;;;;3.00;2.80;;;17.30;46.90;;;;;;20807;6762;119035;-88
2022/07/09 05:27:00;;;;;;;3.10;2.90;;;17.20;47.10;;;;;;20841;6759;120653;-88
2022/07/09 05:29:36;;;;;;;4.15;3.40;;;17.10;47.30;;;;;;20667;6744;305188;-84
2022/07/09 05:32:11;;;;;;;3.63;3.30;;;17.40;47.30;;;;;;20731;6744;118643;-84
2022/07/09 05:34:47;;;;;;;3.37;3.10;;;17.50;47.20;;;;;;20856;6755;117563;-84
2022/07/09 05:37:22;;;;;;;3.83;3.20;;;17.40;47.40;;;;;;20837;6755;117124;-84
2022/07/09 05:39:58;;;;;;;3.60;3.30;;;17.30;47.60;;;;;;20660;6747;306517;-84
2022/07/09 05:42:34;;;;;;;3.83;3.43;;;17.60;47.40;;;;;;20160;6868;310279;-84
2022/07/09 05:45:11;;;;;;;3.17;2.97;;;18.00;46.80;;;;;;20914;6731;118656;-85
2022/07/09 05:47:46;;;;;;;4.53;3.57;;;18.00;46.80;;;;;;20647;6746;307755;-84
2022/07/09 05:50:22;;;;;;;3.53;3.13;;;18.10;46.70;;;;;;20850;6746;118277;-84
2022/07/09 05:52:58;;;;;;;3.97;3.58;;;18.00;46.70;;;;;;20584;6718;339285;-84
2022/07/09 05:55:33;;;;;;;4.60;3.20;;;18.20;46.60;;;;;;20854;6733;118083;-84
2022/07/09 05:58:09;;;;;;;3.27;3.07;;;18.20;46.60;;;;;;20873;6746;118266;-85
2022/07/09 06:00:44;;;;;;;4.00;3.60;;;18.00;46.80;;;;;;20748;6718;281395;-85
2022/07/09 06:03:20;;;;;;;4.70;3.43;;;18.20;46.40;;;;;;20892;6746;119257;-85
2022/07/09 06:06:06;;;;;;;3.30;3.10;;;18.30;46.40;;;;;;20977;6718;117375;-83
2022/07/09 06:08:33;;;;;;;3.20;3.00;;;18.20;46.60;;;;;;20927;6733;117181;-83
2022/07/09 06:11:12;;;;;;;4.93;3.30;;;18.20;46.80;;;;;;20874;6733;117358;-83
2022/07/09 06:13:44;;;;;;;3.20;2.90;;;18.20;46.90;;;;;;20887;6746;118193;-81
2022/07/09 06:16:29;;;;;;;2.70;2.50;;;18.20;46.80;;;;;;20882;6744;117986;-85
2022/07/09 06:18:58;;;;;;;3.80;2.87;;;18.50;46.80;;;;;;20890;6746;118511;-84
2022/07/09 06:21:30;;;;;;;3.87;2.77;;;18.80;47.10;;;;;;20640;6733;310884;-84
2022/07/09 06:24:06;;;;;;;5.60;2.73;;;19.70;45.10;;;;;;20905;6734;119082;-85
2022/07/09 06:26:42;;;;;;;3.80;2.70;;;20.40;45.20;;;;;;20937;6730;119393;-85
2022/07/09 06:29:17;;;;;;;3.93;2.53;;;20.90;44.90;;;;;;20927;6734;120086;-84
2022/07/09 06:32:03;;;;;;;2.50;2.23;;;21.30;44.60;;;;;;20601;6748;279899;-84
2022/07/09 06:34:29;;;;;;;2.90;2.27;;;22.20;41.90;;;;;;20969;6734;116981;-84
2022/07/09 06:37:06;;;;;;;3.27;2.50;;;22.90;41.70;;;;;;20761;6721;276028;-84
2022/07/09 06:39:45;;;;;;;4.72;2.60;;;23.50;38.90;;;;;;20739;6721;319149;-85
2022/07/09 06:42:20;;;;;;;3.30;2.40;;;24.20;37.60;;;;;;20566;6721;278198;-83
2022/07/09 06:44:57;;;;;;;3.05;2.60;;;25.10;36.70;;;;;;20744;6721;305670;-82
2022/07/09 06:47:32;;;;;;;2.40;2.13;;;25.00;36.70;;;;;;20964;6721;117411;-84
2022/07/09 06:50:08;;;;;;;3.87;2.50;;;25.00;37.40;;;;;;20716;6721;306423;-85
2022/07/09 06:52:43;;;;;;;4.72;2.53;;;25.30;36.20;;;;;;20547;6721;310828;-85
2022/07/09 06:55:19;;;;;;;2.23;2.10;;;25.90;35.60;;;;;;20964;6721;117064;-86
2022/07/09 06:57:54;;;;;;;4.70;2.30;;;25.90;36.10;;;;;;20938;6721;119548;-84
2022/07/09 07:00:30;;;;;;;2.20;2.00;;;25.80;36.50;;;;;;20940;6721;116994;-84
2022/07/09 07:03:06;;;;;;;3.03;2.20;;;25.90;36.80;;;;;;20773;6778;119506;-84
2022/07/09 07:05:41;;;;;;;3.57;2.20;;;26.00;36.50;;;;;;20974;6718;117482;-83
2022/07/09 07:08:18;;;;;;;2.27;2.07;;;26.00;36.30;;;;;;20952;6718;120685;-83
2022/07/09 07:11:02;;;;;;;1.83;1.73;;;26.00;36.20;;;;;;20952;6718;117019;-82
2022/07/09 07:13:29;;;;;;;5.57;2.20;;;26.10;36.00;;;;;;20974;6720;117084;-83
2022/07/09 07:16:05;;;;;;;5.10;2.30;;;26.00;35.80;;;;;;20722;6720;304838;-83
2022/07/09 07:18:40;;;;;;;2.53;2.33;;;26.60;34.10;;;;;;20964;6720;116998;-84
2022/07/09 07:21:16;;;;;;;3.77;2.30;;;26.80;34.10;;;;;;20691;6720;308464;-85
2022/07/09 07:23:51;;;;;;;3.53;2.13;;;27.20;32.70;;;;;;20620;6763;302206;-87
2022/07/09 07:26:27;;;;;;;4.45;2.12;;;27.50;32.20;;;;;;20651;6747;336248;-86
2022/07/09 07:29:04;;;;;;;5.70;2.33;;;27.80;31.60;;;;;;20924;6748;117472;-88
2022/07/09 07:31:39;;;;;;;4.13;2.50;;;27.60;32.00;;;;;;20623;6733;279432;-85
2022/07/09 07:34:15;;;;;;;5.03;2.15;;;27.60;31.50;;;;;;20688;6732;338562;-85
2022/07/09 07:36:51;;;;;;;3.97;2.10;;;27.70;31.30;;;;;;20884;6747;116960;-87
2022/07/09 07:39:26;;;;;;;3.23;2.37;;;27.60;31.90;;;;;;20710;6747;275940;-85
2022/07/09 07:42:01;;;;;;;3.33;2.30;;;27.50;31.00;;;;;;20576;6732;283083;-84
2022/07/09 07:44:37;;;;;;;8.40;2.45;;;27.60;31.20;;;;;;20734;6729;305712;-85
2022/07/09 07:47:13;;;;;;;5.17;2.37;;;27.50;31.00;;;;;;20726;6729;284633;-85
2022/07/09 07:49:48;;;;;;;2.20;2.00;;;27.40;31.70;;;;;;20939;6729;116902;-83
2022/07/09 07:52:25;;;;;;;3.40;2.30;;;26.50;33.50;;;;;;20559;6729;281891;-84
2022/07/09 07:55:00;;;;;;;3.50;2.20;;;26.50;32.70;;;;;;20669;6747;302782;-86
2022/07/09 07:57:36;;;;;;;5.50;2.50;;;26.50;33.20;;;;;;20837;6761;116988;-85
2022/07/09 08:00:13;;;;;;;4.73;2.60;;;26.10;33.50;;;;;;20686;6733;278592;-85
2022/07/09 08:02:48;;;;;;;6.97;3.37;;;26.20;34.30;;;;;;20672;6748;118553;-84
2022/07/09 08:05:25;;;;;;;5.43;2.60;;;26.10;34.30;;;;;;20877;6747;117298;-85
2022/07/09 08:07:59;;;;;;;2.83;2.13;;;26.10;34.80;;;;;;20670;6747;278003;-85
2022/07/09 08:10:35;;;;;;;4.28;2.30;;;26.40;34.10;;;;;;20657;6748;278626;-88
2022/07/09 08:13:12;;;;;;;3.47;2.00;;;26.90;32.10;;;;;;20823;6762;117047;-87
2022/07/09 08:15:48;;;;;;;2.07;1.80;;;27.00;32.00;;;;;;20959;6720;117607;-86
2022/07/09 08:18:23;;;;;;;5.27;2.17;;;26.90;32.10;;;;;;20928;6720;119105;-85
2022/07/09 08:21:00;;;;;;;3.10;1.93;;;27.10;31.90;;;;;;20666;6739;281778;-87
2022/07/09 08:23:51;;;;;;;5.07;2.00;;;27.10;31.90;;;;;;20733;6739;278929;-87
2022/07/09 08:26:11;;;;;;;2.17;1.83;;;27.70;30.00;;;;;;20883;6782;119159;-85
2022/07/09 08:28:47;;;;;;;2.47;2.00;;;27.50;30.70;;;;;;20917;6738;117415;-89
2022/07/09 08:31:23;;;;;;;4.37;1.90;;;27.50;30.70;;;;;;20640;6738;309186;-85
2022/07/09 08:33:58;;;;;;;4.87;2.07;;;27.70;30.50;;;;;;20931;6736;119209;-87
2022/07/09 08:36:34;;;;;;;3.10;2.00;;;27.80;30.80;;;;;;20747;6723;278786;-85
2022/07/09 08:39:11;;;;;;;2.10;1.90;;;28.10;30.70;;;;;;20964;6724;119397;-85
2022/07/09 08:41:46;;;;;;;3.17;1.70;;;28.20;30.80;;;;;;20651;6723;307043;-84
2022/07/09 08:44:22;;;;;;;3.07;1.80;;;28.50;29.80;;;;;;20629;6753;307229;-84
2022/07/09 08:46:58;;;;;;;1.70;1.60;;;28.80;29.00;;;;;;21005;6738;121467;-87
2022/07/09 08:49:34;;;;;;;3.43;1.93;;;28.70;29.70;;;;;;20865;6753;117413;-84
2022/07/09 08:52:10;;;;;;;3.15;1.80;;;28.50;29.90;;;;;;20501;6763;279112;-84
2022/07/09 08:54:47;;;;;;;2.80;1.90;;;28.70;29.60;;;;;;20785;6762;117282;-85
2022/07/09 08:57:32;;;;;;;;;;;;;;;;;;;;;
2022/07/09 09:00:08;;;;;;;2.33;1.60;;;29.30;29.40;;;;;;20683;6723;278530;-88
2022/07/09 09:02:44;;;;;;;1.97;1.77;;;29.20;29.30;;;;;;20556;6731;279061;-86
2022/07/09 09:05:19;;;;;;;2.70;2.03;;;29.60;28.70;;;;;;20923;6738;116767;-87
2022/07/09 09:07:55;;;;;;;2.40;1.73;;;29.40;29.10;;;;;;20889;6738;116165;-87
2022/07/09 09:10:41;;;;;;;2.40;1.60;;;29.10;29.40;;;;;;20661;6750;277263;-87
2022/07/09 09:13:06;;;;;;;4.27;1.40;;;29.20;29.20;;;;;;20397;6839;296832;-85
2022/07/09 09:15:42;;;;;;;3.60;1.40;;;29.50;29.40;;;;;;20610;6768;300267;-85
2022/07/09 09:18:17;;;;;;;1.73;1.30;;;29.70;29.20;;;;;;20608;6756;335324;-85
2022/07/09 09:20:53;;;;;;;2.65;1.95;;;30.00;29.50;;;;;;20652;6739;334164;-84
2022/07/09 09:23:28;;;;;;;2.67;1.50;;;30.10;28.60;;;;;;20868;6735;117522;-83
2022/07/09 09:26:07;;;;;;;4.67;1.60;;;29.90;28.90;;;;;;20804;6766;119896;-84
2022/07/09 09:28:53;;;;;;;4.13;1.73;;;29.50;29.30;;;;;;20932;6742;116997;-84
2022/07/09 09:31:31;;;;;;;2.77;1.63;;;29.20;29.60;;;;;;20575;6763;281266;-83
2022/07/09 09:34:13;;;;;;;2.40;1.67;;;29.40;29.20;;;;;;20618;6763;307360;-84
2022/07/09 09:36:50;;;;;;;3.00;1.70;;;29.70;30.40;;;;;;20696;6748;276724;-87
2022/07/09 09:39:24;;;;;;;2.42;1.40;;;30.00;29.30;;;;;;20732;6718;338308;-86
2022/07/09 09:42:00;;;;;;;3.42;1.50;;;30.10;28.60;;;;;;20614;6736;307084;-86
2022/07/09 09:44:39;;;;;;;2.40;1.60;;;30.10;28.70;;;;;;20710;6734;323417;-86
2022/07/09 09:47:14;;;;;;;4.80;1.57;;;30.10;28.90;;;;;;20670;6749;276809;-84
2022/07/09 09:49:50;;;;;;;3.43;1.50;;;30.10;28.50;;;;;;20843;6761;117520;-83
2022/07/09 09:52:25;;;;;;;1.70;1.23;;;29.90;28.90;;;;;;20638;6776;121665;-87
2022/07/09 09:55:01;;;;;;;19.93;2.70;;;29.60;29.60;;;;;;20599;6766;299361;-87
2022/07/09 09:57:37;;;;;;;2.40;1.50;;;29.70;29.60;;;;;;20575;6776;307461;-84
2022/07/09 10:00:13;;;;;;;1.80;1.50;;;30.00;28.80;;;;;;20564;6765;336926;-86
2022/07/09 10:02:50;;;;;;;2.78;1.50;;;30.20;29.30;;;;;;20474;6756;310627;-87
2022/07/09 10:05:24;;;;;;;1.60;1.40;;;30.50;29.50;;;;;;20868;6762;66600;-87
2022/07/09 10:08:00;;;;;;;2.33;1.45;;;30.40;29.40;;;;;;20553;6775;301021;-86
2022/07/09 10:10:35;;;;;;;1.73;1.23;;;30.50;28.50;;;;;;20654;6749;296913;-85
2022/07/09 10:13:11;;;;;;;3.60;1.33;;;30.60;28.10;;;;;;20652;6752;305042;-87
2022/07/09 10:15:50;;;;;;;2.53;1.40;;;30.70;27.50;;;;;;20637;6772;276842;-84
2022/07/09 10:18:25;;;;;;;1.80;1.33;;;30.80;27.60;;;;;;20692;6757;276308;-84
2022/07/09 10:21:01;;;;;;;5.07;1.70;;;30.80;27.60;;;;;;20854;6772;67735;-83
2022/07/09 10:23:40;;;;;;;2.53;1.17;;;30.60;28.20;;;;;;20952;6748;115900;-84
2022/07/09 10:26:13;;;;;;;1.50;1.40;;;30.30;28.60;;;;;;20611;6783;306408;-84
2022/07/09 10:28:49;;;;;;;2.10;1.30;;;30.30;28.40;;;;;;20577;6793;310261;-83
2022/07/09 10:31:24;;;;;;;1.23;1.13;;;30.50;28.00;;;;;;20719;6780;117013;-83
2022/07/09 10:34:00;;;;;;;1.50;1.40;;;30.30;28.20;;;;;;20875;6777;118817;-83
2022/07/09 10:36:41;;;;;;;1.13;1.00;;;30.10;28.30;;;;;;20931;6746;116364;-83
2022/07/09 10:39:11;;;;;;;2.07;1.30;;;29.80;28.30;;;;;;20677;6763;305821;-82
2022/07/09 10:41:47;;;;;;;1.53;1.40;;;30.00;28.20;;;;;;20817;6774;69097;-83
2022/07/09 10:44:36;;;;;;;1.37;1.20;;;30.00;28.50;;;;;;20653;6745;306573;-85
2022/07/09 10:47:13;;;;;;;1.30;1.20;;;30.10;28.90;;;;;;20934;6753;116598;-83
2022/07/09 10:49:58;;;;;;;1.20;1.10;;;30.10;28.60;;;;;;20931;6756;66281;-84
2022/07/09 10:52:24;;;;;;;1.37;1.13;;;29.90;28.80;;;;;;20683;6756;122354;-84
2022/07/09 10:55:00;;;;;;;2.63;1.30;;;29.70;29.00;;;;;;20885;6745;119177;-85
2022/07/09 10:57:35;;;;;;;2.20;1.40;;;29.70;29.00;;;;;;20949;6738;116943;-86
2022/07/09 11:00:14;;;;;;;1.90;1.27;;;29.60;28.80;;;;;;20970;6727;118712;-86
2022/07/09 11:03:03;;;;;;;2.50;1.20;;;29.60;28.80;;;;;;20520;6752;279328;-86
2022/07/09 11:05:38;;;;;;;1.60;1.30;;;30.00;28.90;;;;;;20699;6742;308719;-85
2022/07/09 11:08:14;;;;;;;2.90;1.30;;;30.30;28.00;;;;;;20670;6742;279709;-86
2022/07/09 11:10:50;;;;;;;1.33;1.23;;;30.60;28.00;;;;;;20586;6756;278567;-86
2022/07/09 11:13:26;;;;;;;2.23;1.30;;;30.90;28.70;;;;;;20608;6781;307759;-86
2022/07/09 11:16:04;;;;;;;1.45;1.10;;;31.10;27.70;;;;;;20596;6774;337599;-85
2022/07/09 11:18:37;;;;;;;1.35;1.12;;;31.20;28.30;;;;;;20604;6771;339844;-86
2022/07/09 11:21:14;;;;;;;1.90;1.30;;;31.30;28.30;;;;;;20569;6765;281703;-87
2022/07/09 11:23:56;;;;;;;2.07;1.27;;;31.50;28.10;;;;;;20916;6751;117184;-89
2022/07/09 11:26:32;;;;;;;1.60;1.50;;;31.20;28.80;;;;;;20829;6750;116158;-87
2022/07/09 11:29:08;;;;;;;1.40;1.10;;;31.20;28.30;;;;;;20661;6751;323257;-87
2022/07/09 11:31:46;;;;;;;1.65;1.20;;;31.30;28.30;;;;;;20428;6753;342505;-90
2022/07/09 11:34:21;;;;;;;1.70;1.40;;;31.40;27.70;;;;;;20627;6738;278820;-85
2022/07/09 11:36:57;;;;;;;2.33;1.30;;;31.60;27.80;;;;;;20681;6744;309586;-86
2022/07/09 11:39:39;;;;;;;1.60;1.47;;;31.70;28.10;;;;;;20569;6781;307835;-85
2022/07/09 11:42:11;;;;;;;2.50;1.25;;;31.80;28.00;;;;;;20496;6749;339556;-88
2022/07/09 11:44:59;;;;;;;1.10;1.10;;;31.80;27.70;;;;;;20898;6739;117067;-86
2022/07/09 11:47:33;;;;;;;2.00;1.20;;;31.60;27.50;;;;;;20632;6749;305097;-86
2022/07/09 11:50:11;;;;;;;2.43;1.30;;;31.40;27.10;;;;;;20805;6759;118258;-86
2022/07/09 11:52:47;;;;;;;3.03;1.10;;;31.00;27.40;;;;;;20728;6753;119482;-86
2022/07/09 11:55:22;;;;;;;2.00;1.10;;;30.60;27.60;;;;;;20845;6762;118263;-85
2022/07/09 11:57:59;;;;;;;6.20;1.40;;;30.20;27.90;;;;;;20760;6786;117522;-85
2022/07/09 12:00:35;;;;;;;1.37;1.27;;;29.90;28.10;;;;;;20849;6753;117659;-85
2022/07/09 12:03:10;;;;;;;2.47;1.20;;;29.70;28.30;;;;;;20945;6739;116866;-84
2022/07/09 12:05:47;;;;;;;2.07;1.43;;;29.80;29.40;;;;;;20733;6739;305412;-86
2022/07/09 12:40:42;;;;;;;2.92;1.20;;;31.40;27.80;;;;;;21175;6545;306532;-84
2022/07/09 12:43:08;;;;;;;1.40;1.27;;;31.40;27.60;;;;;;20720;6876;116476;-84
2022/07/09 12:45:33;;;;;;;1.80;1.13;;;31.20;27.80;;;;;;20596;6878;118592;-83
2022/07/09 12:47:59;;;;;;;3.62;1.10;;;30.70;27.20;;;;;;20401;6884;311896;-81
2022/07/09 12:50:25;;;;;;;1.53;0.87;;;30.80;27.20;;;;;;20635;6876;117793;-84
2022/07/09 12:52:51;;;;;;;1.55;1.33;;;30.50;27.50;;;;;;20446;6859;278340;-89
2022/07/09 12:55:16;;;;;;;1.92;1.30;;;30.50;27.60;;;;;;20672;6859;117509;-86
2022/07/09 12:57:42;;;;;;;2.20;1.00;;;30.20;27.80;;;;;;20642;6865;120244;-83
2022/07/09 13:00:08;;;;;;;2.57;1.23;;;29.90;28.30;;;;;;20610;6861;121637;-87
2022/07/09 13:02:33;;;;;;;1.30;1.20;;;29.60;28.60;;;;;;20467;6861;287796;-85
2022/07/09 13:04:59;;;;;;;1.93;1.10;;;30.00;28.00;;;;;;20425;6877;278491;-86
2022/07/09 13:07:27;;;;;;;2.20;1.20;;;30.00;28.00;;;;;;20425;6877;310100;-85
2022/07/09 13:09:52;;;;;;;2.10;1.07;;;30.30;28.30;;;;;;20621;6883;118049;-85
2022/07/09 13:12:19;;;;;;;1.00;1.00;;;30.20;27.80;;;;;;20424;6876;405608;-87
2022/07/09 13:14:45;;;;;;;1.30;1.20;;;30.50;28.30;;;;;;20417;6876;284974;-85
2022/07/09 13:17:11;;;;;;;1.63;1.20;;;30.50;28.30;;;;;;20378;6876;312535;-87
2022/07/09 13:19:37;;;;;;;2.27;1.30;;;30.60;27.50;;;;;;20457;6866;334481;-84
2022/07/09 13:22:03;;;;;;;2.27;1.17;;;30.60;27.50;;;;;;20627;6866;117929;-84
2022/07/09 13:24:29;;;;;;;3.97;1.23;;;30.40;28.00;;;;;;20668;6866;117777;-84
2022/07/09 13:26:54;;;;;;;2.22;1.35;;;30.00;28.30;;;;;;20406;6883;279974;-85
2022/07/09 13:29:20;;;;;;;1.50;1.17;;;30.00;28.70;;;;;;20596;6890;119016;-85
2022/07/09 13:31:45;;;;;;;1.80;1.30;;;29.80;28.70;;;;;;20561;6890;117715;-86
2022/07/09 13:34:11;;;;;;;1.27;1.17;;;29.50;29.00;;;;;;20590;6881;127334;-85
2022/07/09 13:36:36;;;;;;;2.77;1.40;;;29.40;29.20;;;;;;20390;6881;309906;-85
2022/07/09 13:39:03;;;;;;;1.60;1.50;;;29.60;29.70;;;;;;20599;6887;120086;-87
2022/07/09 13:41:28;;;;;;;3.17;1.40;;;29.60;29.20;;;;;;20442;6862;308737;-86
2022/07/09 13:43:54;;;;;;;2.30;1.60;;;29.70;29.00;;;;;;20415;6877;310785;-86
2022/07/09 13:46:19;;;;;;;1.40;1.30;;;29.90;29.20;;;;;;20667;6861;120079;-86
2022/07/09 13:48:45;;;;;;;2.00;1.60;;;29.90;29.20;;;;;;20476;6849;310220;-86
2022/07/09 13:51:10;;;;;;;3.28;1.95;;;29.90;29.30;;;;;;20494;6853;280689;-88